createdAt,value
2018-12-11T00:01:42.268Z,2.35
2018-12-11T00:04:10.671Z,2.30
2018-12-11T00:06:38.998Z,2.52
2018-12-11T00:09:07.464Z,2.80
2018-12-11T00:11:35.916Z,2.30
2018-12-11T00:14:04.495Z,2.33
2018-12-11T00:16:32.887Z,1.75
2018-12-11T00:19:01.215Z,2.27
2018-12-11T00:21:29.565Z,3.85
2018-12-11T00:23:57.950Z,2.65
2018-12-11T00:26:26.332Z,2.42
2018-12-11T00:28:54.709Z,2.30
2018-12-11T00:31:23.095Z,2.27
2018-12-11T00:33:51.480Z,2.95
2018-12-11T00:36:19.898Z,2.50
2018-12-11T00:38:48.309Z,2.58
2018-12-11T00:41:16.643Z,2.37
2018-12-11T00:43:45.005Z,2.42
2018-12-11T00:46:13.336Z,2.50
2018-12-11T00:48:41.650Z,3.67
2018-12-11T00:51:10.019Z,2.65
2018-12-11T00:53:38.333Z,2.25
2018-12-11T00:56:06.683Z,2.27
2018-12-11T00:58:35.020Z,2.30
2018-12-11T01:01:03.451Z,2.50
2018-12-11T01:03:31.880Z,2.62
2018-12-11T01:06:00.309Z,2.55
2018-12-11T01:08:28.666Z,2.65
2018-12-11T01:10:56.973Z,2.35
2018-12-11T01:13:25.317Z,2.37
2018-12-11T01:15:53.639Z,2.55
2018-12-11T01:18:21.985Z,2.75
2018-12-11T01:20:50.361Z,4.10
2018-12-11T01:23:18.827Z,2.45
2018-12-11T01:25:47.114Z,2.30
2018-12-11T01:28:15.517Z,2.58
2018-12-11T01:30:43.863Z,2.70
2018-12-11T01:33:12.241Z,2.62
2018-12-11T01:35:40.811Z,2.77
2018-12-11T01:38:09.367Z,3.40
2018-12-11T01:40:37.709Z,2.50
2018-12-11T01:43:06.057Z,3.12
2018-12-11T01:45:34.404Z,2.80
2018-12-11T01:48:02.725Z,2.67
2018-12-11T01:50:31.176Z,2.70
2018-12-11T01:52:59.544Z,2.77
2018-12-11T01:55:28.153Z,2.62
2018-12-11T01:57:56.513Z,2.27
2018-12-11T02:00:24.873Z,2.50
2018-12-11T02:02:53.278Z,2.67
2018-12-11T02:05:21.718Z,2.55
2018-12-11T02:07:50.149Z,2.20
2018-12-11T02:10:18.552Z,2.08
2018-12-11T02:12:46.885Z,2.02
2018-12-11T02:15:15.210Z,2.37
2018-12-11T02:17:43.544Z,2.42
2018-12-11T02:20:11.913Z,2.30
2018-12-11T02:22:40.280Z,3.50
2018-12-11T02:25:08.632Z,2.60
2018-12-11T02:27:37.069Z,4.45
2018-12-11T02:30:05.864Z,2.37
2018-12-11T02:32:34.190Z,2.58
2018-12-11T02:35:02.568Z,2.20
2018-12-11T02:37:30.999Z,3.00
2018-12-11T02:39:59.401Z,2.92
2018-12-11T02:42:27.809Z,2.77
2018-12-11T02:44:56.186Z,3.30
2018-12-11T02:47:24.520Z,3.22
2018-12-11T02:49:53.003Z,2.47
2018-12-11T02:52:21.444Z,2.62
2018-12-11T02:54:49.859Z,2.50
2018-12-11T02:57:18.248Z,3.33
2018-12-11T02:59:46.543Z,2.58
2018-12-11T03:02:15.057Z,2.70
2018-12-11T03:04:43.455Z,3.02
2018-12-11T03:07:11.819Z,2.55
2018-12-11T03:09:40.228Z,3.62
2018-12-11T03:12:08.705Z,2.70
2018-12-11T03:14:37.162Z,3.70
2018-12-11T03:17:05.637Z,2.70
2018-12-11T03:19:34.033Z,2.83
2018-12-11T03:22:02.369Z,2.40
2018-12-11T03:24:31.368Z,2.75
2018-12-11T03:26:59.680Z,2.65
2018-12-11T03:29:28.387Z,2.72
2018-12-11T03:31:56.829Z,3.00
2018-12-11T03:34:25.271Z,2.70
2018-12-11T03:36:54.688Z,2.67
2018-12-11T03:39:23.055Z,4.10
2018-12-11T03:41:51.639Z,2.60
2018-12-11T03:44:19.983Z,3.33
2018-12-11T03:46:48.519Z,2.77
2018-12-11T03:49:16.921Z,3.40
2018-12-11T03:51:45.261Z,2.87
2018-12-11T03:54:14.566Z,2.42
2018-12-11T03:56:42.905Z,3.05
2018-12-11T03:59:11.285Z,4.03
2018-12-11T04:01:39.617Z,2.27
2018-12-11T04:07:11.185Z,2.50
2018-12-11T04:09:39.637Z,3.30
2018-12-11T04:12:08.108Z,2.27
2018-12-11T04:14:36.623Z,2.30
2018-12-11T04:17:05.107Z,2.75
2018-12-11T04:19:33.509Z,3.47
2018-12-11T04:22:01.840Z,2.47
2018-12-11T04:24:30.302Z,3.42
2018-12-11T04:26:58.770Z,2.25
2018-12-11T04:29:27.135Z,2.40
2018-12-11T04:31:55.521Z,2.27
2018-12-11T04:34:23.906Z,2.25
2018-12-11T04:36:52.223Z,3.67
2018-12-11T04:39:20.559Z,2.50
2018-12-11T04:41:48.908Z,1.80
2018-12-11T04:44:17.370Z,2.37
2018-12-11T04:46:45.776Z,2.83
2018-12-11T04:49:14.139Z,2.87
2018-12-11T04:51:42.494Z,2.55
2018-12-11T04:54:10.870Z,3.50
2018-12-11T04:56:39.677Z,4.45
2018-12-11T04:59:08.016Z,4.40
2018-12-11T05:01:36.398Z,4.03
2018-12-11T05:04:04.836Z,4.47
2018-12-11T05:06:33.518Z,4.78
2018-12-11T05:09:01.989Z,3.65
2018-12-11T05:11:30.331Z,3.42
2018-12-11T05:13:58.798Z,3.92
2018-12-11T05:16:27.133Z,3.85
2018-12-11T05:18:55.466Z,5.80
2018-12-11T05:21:23.852Z,5.03
2018-12-11T05:23:52.188Z,5.03
2018-12-11T05:26:20.581Z,5.28
2018-12-11T05:28:48.905Z,5.75
2018-12-11T05:31:17.260Z,5.87
2018-12-11T05:33:45.589Z,4.30
2018-12-11T05:36:13.929Z,2.98
2018-12-11T05:38:42.284Z,3.98
2018-12-11T05:41:13.860Z,3.25
2018-12-11T05:43:42.213Z,3.60
2018-12-11T05:46:10.605Z,3.80
2018-12-11T05:48:38.985Z,3.72
2018-12-11T05:51:07.378Z,3.37
2018-12-11T05:53:35.749Z,4.75
2018-12-11T05:56:04.128Z,3.87
2018-12-11T05:58:32.708Z,3.12
2018-12-11T06:01:01.093Z,3.80
2018-12-11T06:03:29.528Z,3.70
2018-12-11T06:05:58.246Z,3.92
2018-12-11T06:08:27.890Z,3.60
2018-12-11T06:10:56.765Z,3.85
2018-12-11T06:13:25.502Z,3.20
2018-12-11T06:15:54.256Z,3.37
2018-12-11T06:18:22.605Z,3.62
2018-12-11T06:20:50.999Z,3.30
2018-12-11T06:23:19.322Z,3.40
2018-12-11T06:25:47.701Z,3.50
2018-12-11T06:28:16.045Z,3.80
2018-12-11T06:30:44.392Z,3.15
2018-12-11T06:33:12.811Z,3.77
2018-12-11T06:35:41.229Z,3.52
2018-12-11T06:38:09.567Z,3.83
2018-12-11T06:40:37.912Z,3.67
2018-12-11T06:43:06.392Z,3.58
2018-12-11T06:45:34.749Z,4.78
2018-12-11T06:48:03.232Z,3.65
2018-12-11T06:50:31.624Z,4.10
2018-12-11T06:52:59.971Z,3.75
2018-12-11T06:55:28.379Z,4.15
2018-12-11T06:57:56.711Z,3.65
2018-12-11T07:00:25.022Z,3.75
2018-12-11T07:02:53.365Z,3.80
2018-12-11T07:05:21.792Z,3.60
2018-12-11T07:07:50.133Z,3.47
2018-12-11T07:10:18.635Z,4.40
2018-12-11T07:12:46.977Z,4.90
2018-12-11T07:15:15.394Z,3.55
2018-12-11T07:17:43.946Z,4.00
2018-12-11T07:20:12.316Z,4.47
2018-12-11T07:22:40.817Z,4.03
2018-12-11T07:25:09.341Z,4.33
2018-12-11T07:27:37.722Z,5.37
2018-12-11T07:30:07.023Z,4.60
2018-12-11T07:32:35.397Z,3.90
2018-12-11T07:35:04.387Z,4.20
2018-12-11T07:37:32.895Z,3.92
2018-12-11T07:40:01.257Z,3.02
2018-12-11T07:42:29.666Z,3.65
2018-12-11T07:44:58.041Z,3.37
2018-12-11T07:47:26.381Z,2.90
2018-12-11T07:49:54.767Z,3.90
2018-12-11T07:52:23.228Z,3.40
2018-12-11T07:54:51.565Z,3.40
2018-12-11T07:57:19.941Z,3.62
2018-12-11T07:59:48.332Z,3.50
2018-12-11T08:02:16.713Z,4.42
2018-12-11T08:04:45.140Z,3.62
2018-12-11T08:07:13.484Z,4.17
2018-12-11T08:09:41.827Z,3.65
2018-12-11T08:12:10.171Z,3.85
2018-12-11T08:14:38.612Z,3.80
2018-12-11T08:17:06.937Z,3.52
2018-12-11T08:19:35.328Z,4.53
2018-12-11T08:22:03.737Z,3.87
2018-12-11T08:24:32.073Z,4.40
2018-12-11T08:27:00.427Z,4.55
2018-12-11T08:29:28.938Z,4.62
2018-12-11T08:31:57.585Z,3.92
2018-12-11T08:34:26.341Z,4.37
2018-12-11T08:36:55.044Z,4.83
2018-12-11T08:39:23.392Z,4.55
2018-12-11T08:41:51.789Z,5.72
2018-12-11T08:44:20.121Z,4.37
2018-12-11T08:46:48.497Z,4.50
2018-12-11T08:49:16.953Z,4.45
2018-12-11T08:51:45.374Z,4.95
2018-12-11T08:54:13.753Z,5.37
2018-12-11T08:56:42.116Z,4.62
2018-12-11T08:59:10.492Z,4.33
2018-12-11T09:01:38.895Z,4.30
2018-12-11T09:04:07.316Z,4.47
2018-12-11T09:06:35.682Z,4.33
2018-12-11T09:09:06.184Z,4.33
2018-12-11T09:11:34.563Z,4.17
2018-12-11T09:14:03.018Z,4.58
2018-12-11T09:16:31.427Z,4.80
2018-12-11T09:18:59.836Z,4.62
2018-12-11T09:21:28.210Z,3.95
2018-12-11T09:23:56.594Z,4.58
2018-12-11T09:26:24.885Z,5.58
2018-12-11T09:28:53.247Z,4.75
2018-12-11T09:31:21.632Z,4.80
2018-12-11T09:33:50.052Z,4.62
2018-12-11T09:36:18.431Z,5.42
2018-12-11T09:38:46.965Z,3.98
2018-12-11T09:41:15.322Z,4.03
2018-12-11T09:43:43.723Z,4.25
2018-12-11T09:46:12.189Z,3.83
2018-12-11T09:48:40.534Z,3.72
2018-12-11T09:51:08.880Z,3.95
2018-12-11T09:53:37.233Z,4.15
2018-12-11T09:56:05.615Z,3.15
2018-12-11T09:58:34.032Z,3.90
2018-12-11T10:01:02.408Z,3.65
2018-12-11T10:03:30.794Z,3.20
2018-12-11T10:05:59.316Z,2.50
2018-12-11T10:08:27.708Z,3.22
2018-12-11T10:10:56.159Z,2.83
2018-12-11T10:13:24.528Z,3.45
2018-12-11T10:15:52.908Z,3.87
2018-12-11T10:18:21.276Z,2.90
2018-12-11T10:20:49.877Z,3.35
2018-12-11T10:23:18.753Z,3.02
2018-12-11T10:25:47.175Z,2.90
2018-12-11T10:28:15.510Z,2.72
2018-12-11T10:30:47.776Z,2.45
2018-12-11T10:33:16.753Z,2.87
2018-12-11T10:35:45.854Z,2.35
2018-12-11T10:38:14.783Z,2.65
2018-12-11T10:40:43.603Z,2.35
2018-12-11T10:43:12.432Z,3.80
2018-12-11T10:45:41.111Z,2.20
2018-12-11T10:48:09.873Z,3.67
2018-12-11T10:50:38.708Z,3.10
2018-12-11T10:53:07.248Z,3.00
2018-12-11T10:55:35.963Z,4.75
2018-12-11T10:58:04.616Z,4.50
2018-12-11T11:00:39.275Z,2.87
2018-12-11T11:03:08.112Z,3.92
2018-12-11T11:05:36.487Z,4.50
2018-12-11T11:08:04.861Z,3.00
2018-12-11T11:10:33.271Z,10.70
2018-12-11T11:13:01.680Z,9.90
2018-12-11T11:15:30.147Z,8.20
2018-12-11T11:17:58.562Z,4.80
2018-12-11T11:20:26.932Z,3.50
2018-12-11T11:22:55.311Z,2.58
2018-12-11T11:25:23.749Z,4.92
2018-12-11T11:27:52.136Z,2.75
2018-12-11T11:30:20.535Z,2.37
2018-12-11T11:32:49.025Z,2.30
2018-12-11T11:35:17.549Z,1.62
2018-12-11T11:37:46.101Z,2.15
2018-12-11T11:40:14.812Z,2.85
2018-12-11T11:42:43.906Z,3.17
2018-12-11T11:45:13.141Z,2.80
2018-12-11T11:47:41.543Z,2.60
2018-12-11T11:50:13.274Z,2.75
2018-12-11T11:52:41.677Z,3.35
2018-12-11T11:55:10.223Z,2.65
2018-12-11T11:57:39.015Z,3.12
2018-12-11T12:00:10.513Z,2.87
2018-12-11T12:02:38.912Z,3.77
2018-12-11T12:05:07.596Z,2.37
2018-12-11T12:07:36.096Z,3.20
2018-12-11T12:10:07.639Z,5.22
2018-12-11T12:12:36.895Z,2.27
2018-12-11T12:15:10.972Z,2.30
2018-12-11T12:17:40.471Z,1.92
2018-12-11T12:20:10.364Z,2.02
2018-12-11T12:22:39.226Z,2.20
2018-12-11T12:25:08.226Z,2.10
2018-12-11T12:27:36.949Z,1.90
2018-12-11T12:30:07.186Z,1.62
2018-12-11T12:32:35.971Z,2.05
2018-12-11T12:35:05.272Z,2.30
2018-12-11T12:37:33.883Z,1.40
2018-12-11T12:40:02.787Z,1.40
2018-12-11T12:42:31.657Z,2.05
2018-12-11T12:45:00.250Z,2.20
2018-12-11T12:47:28.831Z,2.72
2018-12-11T12:49:57.459Z,2.60
2018-12-11T12:52:26.020Z,1.30
2018-12-11T12:54:54.678Z,2.20
2018-12-11T12:57:23.374Z,3.55
2018-12-11T12:59:52.530Z,2.40
2018-12-11T13:02:21.037Z,2.50
2018-12-11T13:04:49.581Z,2.12
2018-12-11T13:07:18.344Z,2.20
2018-12-11T13:09:47.174Z,2.80
2018-12-11T13:12:15.965Z,1.50
2018-12-11T13:14:44.479Z,2.05
2018-12-11T13:17:13.326Z,2.42
2018-12-11T13:19:41.964Z,2.77
2018-12-11T13:22:10.348Z,5.75
2018-12-11T13:24:38.910Z,2.30
2018-12-11T13:27:07.236Z,2.67
2018-12-11T13:29:35.580Z,2.58
2018-12-11T13:32:04.076Z,2.70
2018-12-11T13:34:32.449Z,3.27
2018-12-11T13:37:01.017Z,3.50
2018-12-11T13:39:29.429Z,2.95
2018-12-11T13:41:57.979Z,2.50
2018-12-11T13:44:26.562Z,1.70
2018-12-11T13:46:55.324Z,2.67
2018-12-11T13:49:23.686Z,1.90
2018-12-11T13:51:52.159Z,3.08
2018-12-11T13:54:20.493Z,2.27
2018-12-11T13:56:48.828Z,2.72
2018-12-11T13:59:17.149Z,1.82
2018-12-11T14:01:45.632Z,2.00
2018-12-11T14:04:13.996Z,2.20
2018-12-11T14:06:42.611Z,2.25
2018-12-11T14:09:16.407Z,2.20
2018-12-11T14:11:44.833Z,1.85
2018-12-11T14:14:13.352Z,2.50
2018-12-11T14:16:41.894Z,2.20
2018-12-11T14:19:10.388Z,2.15
2018-12-11T14:21:38.844Z,2.60
2018-12-11T14:24:07.184Z,2.20
2018-12-11T14:26:35.592Z,1.70
2018-12-11T14:29:04.103Z,2.15
2018-12-11T14:31:32.436Z,1.70
2018-12-11T14:34:00.819Z,2.58
2018-12-11T14:36:29.287Z,3.10
2018-12-11T14:38:57.838Z,6.92
2018-12-11T14:41:26.463Z,3.22
2018-12-11T14:43:55.174Z,5.65
2018-12-11T14:46:23.805Z,2.58
2018-12-11T14:48:52.497Z,3.67
2018-12-11T14:51:21.059Z,2.85
2018-12-11T14:53:49.632Z,9.48
2018-12-11T14:56:18.009Z,4.70
2018-12-11T14:58:46.365Z,2.95
2018-12-11T15:01:14.705Z,3.35
2018-12-11T15:03:43.081Z,2.98
2018-12-11T15:06:11.409Z,3.22
2018-12-11T15:08:39.836Z,3.15
2018-12-11T15:11:08.247Z,3.40
2018-12-11T15:13:36.617Z,3.65
2018-12-11T15:16:05.803Z,3.60
2018-12-11T15:18:34.256Z,3.40
2018-12-11T15:21:02.700Z,2.90
2018-12-11T15:23:31.129Z,4.33
2018-12-11T15:25:59.528Z,3.85
2018-12-11T15:28:27.928Z,3.80
2018-12-11T15:31:08.683Z,3.58
2018-12-11T15:33:37.077Z,3.92
2018-12-11T15:36:05.532Z,4.70
2018-12-11T15:38:33.872Z,4.37
2018-12-11T15:41:02.269Z,3.52
2018-12-11T15:43:30.868Z,3.87
2018-12-11T15:46:01.061Z,4.65
2018-12-11T15:48:29.634Z,3.80
2018-12-11T15:50:58.031Z,4.47
2018-12-11T15:53:26.634Z,3.87
2018-12-11T15:55:54.987Z,4.15
2018-12-11T15:58:25.058Z,3.70
2018-12-11T16:00:53.757Z,4.20
2018-12-11T16:03:22.115Z,4.75
2018-12-11T16:05:50.516Z,4.08
2018-12-11T16:08:18.916Z,3.83
2018-12-11T16:10:47.373Z,4.53
2018-12-11T16:13:15.753Z,4.50
2018-12-11T16:15:44.061Z,3.77
2018-12-11T16:18:12.476Z,4.12
2018-12-11T16:20:40.856Z,4.47
2018-12-11T16:23:09.314Z,4.37
2018-12-11T16:25:37.695Z,4.37
2018-12-11T16:28:06.052Z,5.40
2018-12-11T16:30:34.472Z,4.08
2018-12-11T16:33:02.842Z,4.50
2018-12-11T16:35:31.333Z,3.90
2018-12-11T16:37:59.815Z,4.25
2018-12-11T16:40:28.184Z,5.97
2018-12-11T16:42:56.655Z,4.20
2018-12-11T16:45:25.123Z,5.10
2018-12-11T16:47:53.551Z,5.20
2018-12-11T16:50:22.033Z,5.33
2018-12-11T16:52:50.457Z,5.65
2018-12-11T16:55:18.856Z,5.60
2018-12-11T16:57:47.225Z,6.00
2018-12-11T17:00:15.820Z,5.55
2018-12-11T17:02:44.200Z,5.55
2018-12-11T17:05:12.764Z,5.00
2018-12-11T17:07:41.200Z,4.83
2018-12-11T17:10:09.913Z,5.50
2018-12-11T17:12:39.124Z,5.12
2018-12-11T17:15:12.624Z,6.30
2018-12-11T17:17:41.231Z,4.90
2018-12-11T17:20:09.709Z,6.53
2018-12-11T17:22:38.105Z,5.70
2018-12-11T17:25:06.612Z,6.10
2018-12-11T17:27:35.004Z,8.33
2018-12-11T17:30:04.043Z,7.67
2018-12-11T17:32:32.424Z,8.90
2018-12-11T17:35:00.856Z,5.90
2018-12-11T17:37:29.171Z,6.28
2018-12-11T17:39:57.584Z,6.83
2018-12-11T17:42:26.080Z,7.20
2018-12-11T17:44:54.850Z,7.75
2018-12-11T17:47:23.594Z,5.90
2018-12-11T17:49:52.132Z,6.28
2018-12-11T17:52:20.559Z,7.33
2018-12-11T17:54:48.973Z,6.78
2018-12-11T17:57:17.345Z,7.08
2018-12-11T17:59:45.821Z,6.53
2018-12-11T18:02:18.461Z,5.97
2018-12-11T18:04:47.350Z,8.10
2018-12-11T18:07:15.747Z,8.35
2018-12-11T18:09:45.080Z,7.28
2018-12-11T18:12:13.957Z,8.98
2018-12-11T18:14:42.697Z,6.67
2018-12-11T18:17:12.359Z,7.67
2018-12-11T18:19:40.958Z,6.90
2018-12-11T18:22:09.526Z,7.70
2018-12-11T18:24:38.257Z,8.08
2018-12-11T18:27:06.887Z,7.33
2018-12-11T18:29:35.480Z,8.08
2018-12-11T18:32:04.328Z,7.58
2018-12-11T18:34:34.952Z,7.17
2018-12-11T18:37:03.440Z,7.03
2018-12-11T18:39:31.829Z,7.40
2018-12-11T18:42:00.282Z,8.28
2018-12-11T18:44:28.816Z,7.90
2018-12-11T18:46:57.265Z,6.58
2018-12-11T18:49:26.099Z,8.28
2018-12-11T18:51:54.577Z,8.78
2018-12-11T18:54:23.061Z,7.45
2018-12-11T18:56:52.441Z,8.40
2018-12-11T18:59:21.211Z,7.67
2018-12-11T19:01:49.971Z,9.03
2018-12-11T19:04:18.640Z,7.92
2018-12-11T19:06:47.120Z,7.97
2018-12-11T19:09:15.603Z,7.08
2018-12-11T19:11:44.852Z,7.28
2018-12-11T19:14:13.653Z,8.10
2018-12-11T19:16:42.355Z,7.65
2018-12-11T19:19:11.073Z,6.72
2018-12-11T19:21:39.829Z,7.33
2018-12-11T19:24:49.133Z,7.60
2018-12-11T19:27:17.766Z,6.53
2018-12-11T19:29:46.139Z,7.40
2018-12-11T19:32:14.571Z,8.00
2018-12-11T19:34:42.919Z,7.90
2018-12-11T19:37:11.369Z,7.70
2018-12-11T19:39:39.734Z,7.37
2018-12-11T19:42:08.647Z,7.03
2018-12-11T19:44:37.126Z,6.85
2018-12-11T19:47:05.574Z,7.83
2018-12-11T19:49:34.552Z,7.90
2018-12-11T19:52:03.127Z,9.38
2018-12-11T19:54:31.996Z,7.42
2018-12-11T19:57:00.473Z,8.75
2018-12-11T19:59:29.152Z,8.50
2018-12-11T20:01:57.605Z,9.95
2018-12-11T20:04:26.077Z,6.72
2018-12-11T20:06:54.689Z,7.20
2018-12-11T20:09:23.221Z,7.45
2018-12-11T20:11:51.761Z,8.95
2018-12-11T20:14:20.359Z,8.18
2018-12-11T20:16:49.048Z,7.90
2018-12-11T20:19:17.728Z,8.05
2018-12-11T20:21:46.383Z,6.95
2018-12-11T20:24:15.339Z,8.45
2018-12-11T20:26:44.157Z,10.20
2018-12-11T20:29:12.703Z,8.05
2018-12-11T20:31:41.472Z,9.20
2018-12-11T20:34:10.068Z,8.05
2018-12-11T20:36:38.770Z,9.00
2018-12-11T20:39:07.844Z,8.15
2018-12-11T20:41:36.564Z,9.80
2018-12-11T20:44:05.524Z,10.45
2018-12-11T20:46:34.113Z,10.90
2018-12-11T20:49:02.533Z,11.05
2018-12-11T20:51:31.127Z,10.55
2018-12-11T20:53:59.789Z,11.05
2018-12-11T20:56:28.377Z,10.50
2018-12-11T20:58:57.026Z,11.08
2018-12-11T21:01:25.738Z,11.78
2018-12-11T21:03:54.440Z,10.78
2018-12-11T21:06:23.118Z,11.68
2018-12-11T21:08:51.873Z,12.30
2018-12-11T21:11:20.405Z,12.50
2018-12-11T21:13:49.204Z,12.47
2018-12-11T21:16:18.612Z,13.30
2018-12-11T21:18:47.598Z,13.00
2018-12-11T21:21:16.463Z,13.05
2018-12-11T21:23:45.198Z,11.48
2018-12-11T21:26:13.733Z,12.35
2018-12-11T21:28:42.527Z,13.18
2018-12-11T21:31:11.225Z,12.82
2018-12-11T21:33:39.904Z,12.60
2018-12-11T21:36:08.375Z,12.45
2018-12-11T21:38:36.868Z,11.78
2018-12-11T21:41:05.272Z,12.13
2018-12-11T21:43:34.025Z,12.30
2018-12-11T21:46:02.790Z,12.03
2018-12-11T21:48:31.571Z,10.50
2018-12-11T21:51:00.379Z,10.40
2018-12-11T21:53:29.145Z,12.18
2018-12-11T21:55:58.063Z,10.28
2018-12-11T21:58:26.766Z,10.65
2018-12-11T22:00:55.523Z,9.28
2018-12-11T22:03:24.486Z,9.25
2018-12-11T22:05:53.775Z,9.98
2018-12-11T22:08:22.533Z,9.35
2018-12-11T22:10:51.518Z,8.15
2018-12-11T22:13:20.021Z,9.13
2018-12-11T22:15:49.854Z,8.38
2018-12-11T22:18:18.533Z,9.78
2018-12-11T22:20:47.179Z,7.92
2018-12-11T22:23:15.758Z,8.28
2018-12-11T22:25:44.520Z,8.70
2018-12-11T22:28:13.246Z,7.60
2018-12-11T22:30:41.896Z,9.08
2018-12-11T22:33:10.298Z,7.78
2018-12-11T22:35:38.852Z,7.65
2018-12-11T22:38:07.339Z,8.40
2018-12-11T22:40:35.835Z,8.63
2018-12-11T22:43:04.448Z,8.38
2018-12-11T22:45:32.941Z,7.50
2018-12-11T22:48:01.785Z,12.55
2018-12-11T22:50:30.162Z,8.55
2018-12-11T22:52:58.635Z,8.60
2018-12-11T22:55:27.040Z,8.50
2018-12-11T22:57:55.535Z,8.48
2018-12-11T23:00:24.337Z,9.25
2018-12-11T23:02:52.862Z,9.93
2018-12-11T23:05:21.215Z,9.40
2018-12-11T23:07:49.712Z,8.65
2018-12-11T23:10:18.168Z,9.68
2018-12-11T23:12:46.557Z,9.35
2018-12-11T23:15:15.098Z,8.43
2018-12-11T23:17:43.508Z,9.05
2018-12-11T23:20:11.967Z,8.15
2018-12-11T23:22:40.360Z,9.48
2018-12-11T23:25:09.070Z,8.63
2018-12-11T23:27:37.423Z,8.60
2018-12-11T23:30:06.059Z,8.03
2018-12-11T23:32:34.444Z,8.60
2018-12-11T23:35:02.882Z,7.90
2018-12-11T23:37:31.240Z,8.13
2018-12-11T23:39:59.601Z,8.18
2018-12-11T23:42:28.036Z,8.28
2018-12-11T23:44:56.418Z,7.92
2018-12-11T23:47:24.820Z,7.85
2018-12-11T23:49:53.307Z,8.05
2018-12-11T23:52:21.950Z,8.55
2018-12-11T23:54:50.438Z,7.90
2018-12-11T23:57:18.824Z,7.45
2018-12-11T23:59:47.218Z,8.68
